createdAt,value
2022-09-15T00:01:29.116Z,84.51
2022-09-15T00:11:36.237Z,84.88
2022-09-15T00:21:43.845Z,85.16
2022-09-15T00:31:49.450Z,85.49
2022-09-15T00:41:55.046Z,86.20
2022-09-15T00:52:05.662Z,86.61
2022-09-15T01:02:17.062Z,86.72
2022-09-15T01:12:25.098Z,86.82
2022-09-15T01:22:42.114Z,86.69
2022-09-15T01:33:20.834Z,86.43
2022-09-15T01:43:29.588Z,86.11
2022-09-15T01:53:36.587Z,86.33
2022-09-15T02:03:47.051Z,86.71
2022-09-15T02:14:03.770Z,87.04
2022-09-15T02:24:13.658Z,87.49
2022-09-15T02:34:22.725Z,87.51
2022-09-15T02:44:30.580Z,87.59
2022-09-15T02:54:36.268Z,87.82
2022-09-15T03:04:41.930Z,87.94
2022-09-15T03:14:47.920Z,88.18
2022-09-15T03:24:53.534Z,88.23
2022-09-15T03:34:59.356Z,88.38
2022-09-15T03:45:05.395Z,88.49
2022-09-15T03:55:11.802Z,88.27
2022-09-15T04:05:17.432Z,88.04
2022-09-15T04:15:23.717Z,87.91
2022-09-15T04:25:29.573Z,88.12
2022-09-15T04:35:35.214Z,88.03
2022-09-15T04:45:40.994Z,87.53
2022-09-15T04:55:46.646Z,87.56
2022-09-15T05:05:52.540Z,87.48
2022-09-15T05:16:04.012Z,87.67
2022-09-15T05:26:13.368Z,87.66
2022-09-15T05:36:21.367Z,87.75
2022-09-15T05:46:27.869Z,87.83
2022-09-15T05:56:34.086Z,87.81
2022-09-15T06:06:39.746Z,87.77
2022-09-15T06:16:45.805Z,87.36
2022-09-15T06:26:51.539Z,86.86
2022-09-15T06:36:57.194Z,86.43
2022-09-15T06:47:02.906Z,85.29
2022-09-15T06:57:08.679Z,84.36
2022-09-15T07:07:14.281Z,82.34
2022-09-15T07:17:19.925Z,80.48
2022-09-15T07:27:30.230Z,79.24
2022-09-15T07:37:36.172Z,71.13
2022-09-15T07:47:41.756Z,62.13
2022-09-15T07:57:47.458Z,50.31
2022-09-15T08:07:53.072Z,45.25
2022-09-15T08:17:58.883Z,40.99
2022-09-15T08:28:05.238Z,38.22
2022-09-15T08:38:11.182Z,34.08
2022-09-15T08:48:21.389Z,31.84
2022-09-15T08:58:29.734Z,35.47
2022-09-15T09:08:52.245Z,38.52
2022-09-15T09:19:22.505Z,40.33
2022-09-15T09:29:35.814Z,42.81
2022-09-15T09:39:41.432Z,44.84
2022-09-15T09:49:50.474Z,45.11
2022-09-15T09:59:56.662Z,45.68
2022-09-15T10:10:03.138Z,45.62
2022-09-15T10:20:25.620Z,45.60
2022-09-15T10:30:31.465Z,46.49
2022-09-15T10:40:47.122Z,47.48
2022-09-15T10:51:00.074Z,48.55
2022-09-15T11:01:23.094Z,48.31
2022-09-15T11:11:36.881Z,47.94
2022-09-15T11:21:48.372Z,48.10
2022-09-15T11:42:12.684Z,48.72
2022-09-15T11:52:35.632Z,48.53
2022-09-15T12:02:48.694Z,49.31
2022-09-15T12:12:56.715Z,49.98
2022-09-15T12:23:03.758Z,50.21
2022-09-15T12:33:54.706Z,49.83
2022-09-15T12:44:15.628Z,49.53
2022-09-15T12:54:28.409Z,49.69
2022-09-15T13:04:58.029Z,50.65
2022-09-15T13:15:06.324Z,52.44
2022-09-15T13:25:20.724Z,53.78
2022-09-15T13:35:39.898Z,54.08
2022-09-15T13:45:58.435Z,54.37
2022-09-15T13:56:07.909Z,53.76
2022-09-15T14:06:16.351Z,53.58
2022-09-15T14:16:30.135Z,53.17
2022-09-15T14:26:37.663Z,52.59
2022-09-15T14:36:43.514Z,52.88
2022-09-15T14:46:49.627Z,53.46
2022-09-15T14:56:57.838Z,53.86
2022-09-15T15:07:08.289Z,53.92
2022-09-15T15:17:29.000Z,54.14
2022-09-15T15:27:44.176Z,54.97
2022-09-15T15:37:50.678Z,55.41
2022-09-15T15:47:56.640Z,55.85
2022-09-15T15:58:02.241Z,56.18
2022-09-15T16:08:12.450Z,56.87
2022-09-15T16:18:18.406Z,57.93
2022-09-15T16:28:24.200Z,58.93
2022-09-15T16:38:29.989Z,59.71
2022-09-15T16:48:35.617Z,60.41
2022-09-15T16:58:41.641Z,61.58
2022-09-15T17:08:47.663Z,62.59
2022-09-15T17:18:53.415Z,63.69
2022-09-15T17:28:59.046Z,64.62
2022-09-15T17:39:04.844Z,65.23
2022-09-15T17:49:10.426Z,65.92
2022-09-15T17:59:16.337Z,66.45
2022-09-15T18:09:22.205Z,66.91
2022-09-15T18:19:27.799Z,67.54
2022-09-15T18:29:33.588Z,67.72
2022-09-15T18:39:39.205Z,67.85
2022-09-15T18:49:44.942Z,68.50
2022-09-15T18:59:50.906Z,68.65
2022-09-15T19:09:57.266Z,69.12
2022-09-15T19:20:03.403Z,69.69
2022-09-15T19:30:11.978Z,70.18
2022-09-15T19:40:18.246Z,70.70
2022-09-15T19:50:25.043Z,70.80
2022-09-15T20:00:30.786Z,71.13
2022-09-15T20:10:39.790Z,71.71
2022-09-15T20:20:45.771Z,72.23
2022-09-15T20:31:01.271Z,72.76
2022-09-15T20:41:09.404Z,73.70
2022-09-15T20:51:17.117Z,74.36
2022-09-15T21:01:24.836Z,75.07
2022-09-15T21:11:31.234Z,75.67
2022-09-15T21:21:37.328Z,76.12
2022-09-15T21:31:43.308Z,76.59
2022-09-15T21:41:49.806Z,77.08
2022-09-15T21:51:56.415Z,77.62
2022-09-15T22:02:02.506Z,78.21
2022-09-15T22:12:08.977Z,78.37
2022-09-15T22:22:14.769Z,79.13
2022-09-15T22:32:20.621Z,79.59
2022-09-15T22:42:27.796Z,80.14
2022-09-15T22:52:33.640Z,80.64
2022-09-15T23:02:39.494Z,80.83
2022-09-15T23:12:45.112Z,81.63
2022-09-15T23:22:50.733Z,81.71
2022-09-15T23:32:56.598Z,81.96
2022-09-15T23:43:02.373Z,82.68
2022-09-15T23:53:08.478Z,82.98
